^^
Station Historical Data
Daily Summary for March 14, 2018 Units:  Metric    English   Both
« Previous Day
Next Day »
Daily Weekly Monthly Yearly Custom
  High: Low: Average:
Temperature: -17.8 °C -1.4 °C 8.3 °C
Dew Point: -17.8 °C -9.3 °C -6.8 °C
Humidity: Humidity% 20% 36%
Wind Speed: 0km/h 0km/h 9.2km/h
Wind Gust: 0km/h - -
Wind- - WSW
Pressure: 0 hPa 1012.4 hPa -
Precipitation: 0 mm    
Historical Graphs
 
 
Tabular Data for March 14, 2018
Time Temperature Dew Point Pressure Wind Wind Speed Wind Gust Humidity Rainfall Rate (Hourly)
-17.8 °C -17.8 °C 0 hPa Calm     Humidity% 0 mm
00:01 3.6 °C -8.5 °C 1026.3 hPa North 3.7 km/h 3.7 km/h 41% 0 mm
00:06 3.4 °C -8.3 °C 1026.3 hPa North 5.6 km/h 5.6 km/h 42% 0 mm
00:11 3.3 °C -8.4 °C 1026.3 hPa North 5.6 km/h 5.6 km/h 42% 0 mm
00:17 3.2 °C -8.6 °C 1026.3 hPa North 3.7 km/h 3.7 km/h 42% 0 mm
00:22 3 °C -8.4 °C 1026 hPa North 3.7 km/h 3.7 km/h 43% 0 mm
00:28 3 °C -8.4 °C 1026 hPa North 3.7 km/h 3.7 km/h 43% 0 mm
00:33 2.9 °C -8.4 °C 1026 hPa North 3.7 km/h 3.7 km/h 43% 0 mm
00:38 2.9 °C -8.4 °C 1026 hPa North 1.9 km/h 1.9 km/h 43% 0 mm
00:43 2.8 °C -8.6 °C 1026 hPa North 1.9 km/h 1.9 km/h 43% 0 mm
00:48 2.7 °C -8.7 °C 1026 hPa North 3.2 km/h 3.2 km/h 43% 0 mm
00:53 2.6 °C -8.7 °C 1026 hPa North 1.9 km/h   43% 0 mm
00:58 2.5 °C -8.6 °C 1026 hPa Calm     44% 0 mm
01:04 2.4 °C -8.6 °C 1026 hPa North 1.9 km/h 1.9 km/h 44% 0 mm
01:09 2.4 °C -8.7 °C 1026 hPa Calm     44% 0 mm
01:14 2.4 °C -8.3 °C 1026 hPa Calm   0.2 km/h 45% 0 mm
01:19 2.3 °C -8.4 °C 1026 hPa North 1.9 km/h 1.9 km/h 45% 0 mm
01:24 2.1 °C -8.3 °C 1026 hPa North 1.9 km/h 1.9 km/h 46% 0 mm
01:29 1.9 °C -8.6 °C 1026 hPa North 1.9 km/h 1.9 km/h 46% 0 mm
01:34 1.7 °C -8.2 °C 1025.6 hPa North 1.9 km/h 1.9 km/h 48% 0 mm
01:39 1.6 °C -8.5 °C 1025.6 hPa North 1.9 km/h 1.9 km/h 47% 0 mm
01:45 1.6 °C -8.6 °C 1025.6 hPa North 1.9 km/h 1.9 km/h 47% 0 mm
01:50 1.4 °C -8.7 °C 1025.6 hPa North 1.9 km/h   47% 0 mm
01:55 1.4 °C -8.7 °C 1025.6 hPa Calm   0.2 km/h 47% 0 mm
02:00 1.4 °C -8.7 °C 1025.6 hPa Calm     47% 0 mm
02:05 1.4 °C -8.7 °C 1025.6 hPa Calm     47% 0 mm
02:10 1.3 °C -8.8 °C 1025.6 hPa Calm     47% 0 mm
02:15 1.3 °C -9.1 °C 1025.6 hPa Calm     46% 0 mm
02:20 1.2 °C -8.9 °C 1025.6 hPa Calm     47% 0 mm
02:25 1 °C -8.8 °C 1026 hPa Calm     48% 0 mm
02:31 0.8 °C -8.7 °C 1026 hPa Calm     49% 0 mm
02:36 0.8 °C -8.7 °C 1026 hPa North 1.9 km/h 1.9 km/h 49% 0 mm
02:41 0.8 °C -8.7 °C 1026 hPa Calm     49% 0 mm
02:46 0.7 °C -8.6 °C 1025.6 hPa Calm     50% 0 mm
02:51 0.7 °C -8.3 °C 1025.6 hPa Calm     51% 0 mm
02:57 0.6 °C -8.4 °C 1025.6 hPa Calm     51% 0 mm
03:02 0.6 °C -8.4 °C 1025.6 hPa Calm     51% 0 mm
03:07 0.6 °C -8.4 °C 1025.6 hPa Calm     51% 0 mm
03:12 0.6 °C -8.4 °C 1025.6 hPa Calm     51% 0 mm
03:19 0.6 °C -8.4 °C 1025.6 hPa Calm     51% 0 mm
03:24 0.5 °C -8.2 °C 1025.6 hPa Calm     52% 0 mm
03:29 0.3 °C -8.4 °C 1025.6 hPa Calm     52% 0 mm
03:35 0.1 °C -8.4 °C 1025.3 hPa Calm     53% 0 mm
03:40 0.1 °C -8.4 °C 1025.3 hPa Calm     53% 0 mm
03:45 0.1 °C -8.6 °C 1025.3 hPa Calm     52% 0 mm
03:50 0.4 °C -8.6 °C 1025.3 hPa Calm     51% 0 mm
03:55 0.4 °C -8.6 °C 1025.3 hPa Calm     51% 0 mm
04:01 0.4 °C -8.8 °C 1024.9 hPa Calm     50% 0 mm
04:06 0.3 °C -8.9 °C 1024.9 hPa Calm     50% 0 mm
04:11 0.2 °C -8.8 °C 1024.9 hPa Calm     51% 0 mm
04:16 -0.1 °C -9 °C 1024.6 hPa Calm     51% 0 mm
04:22 0.1 °C -8.9 °C 1024.6 hPa North 5.6 km/h 5.6 km/h 51% 0 mm
04:27 0.5 °C -9 °C 1024.6 hPa North 3.7 km/h 3.7 km/h 49% 0 mm
04:32 0.8 °C -9.3 °C 1024.6 hPa North 1.9 km/h 1.9 km/h 47% 0 mm
04:37 0.8 °C -9.3 °C 1024.6 hPa North 1.9 km/h 1.9 km/h 47% 0 mm
04:42 0.6 °C -9.2 °C 1024.6 hPa North 1.9 km/h 1.9 km/h 48% 0 mm
04:47 0.4 °C -8.8 °C 1024.6 hPa Calm     50% 0 mm
04:52 0 °C -8.9 °C 1024.6 hPa North 3.7 km/h 3.7 km/h 51% 0 mm
04:57 -0.3 °C -8.9 °C 1024.6 hPa North 1.9 km/h 1.9 km/h 52% 0 mm
05:02 -0.5 °C -8.7 °C 1024.6 hPa Calm     54% 0 mm
05:07 -0.7 °C -8.9 °C 1024.6 hPa North 3.7 km/h 3.7 km/h 54% 0 mm
05:12 -0.8 °C -8.9 °C 1024.6 hPa North 3.7 km/h 3.7 km/h 54% 0 mm
05:17 -0.9 °C -8.8 °C 1024.6 hPa North 3.7 km/h 3.7 km/h 55% 0 mm
05:22 -0.8 °C -8.8 °C 1024.6 hPa North 3.7 km/h 3.7 km/h 55% 0 mm
05:27 -0.8 °C -8.8 °C 1024.3 hPa North 3.7 km/h 3.7 km/h 55% 0 mm
05:32 -0.9 °C -8.8 °C 1024.3 hPa North 1.9 km/h 2.1 km/h 55% 0 mm
05:38 -0.9 °C -8.8 °C 1024.3 hPa North 3.7 km/h 3.7 km/h 55% 0 mm
05:43 -0.8 °C -8.8 °C 1024.3 hPa North 3.7 km/h 3.7 km/h 55% 0 mm
05:49 -0.8 °C -8.5 °C 1024.3 hPa North 5.6 km/h 5.6 km/h 56% 0 mm
05:54 -0.8 °C -8.8 °C 1024.3 hPa North 1.9 km/h 1.9 km/h 55% 0 mm
05:59 -0.9 °C -8.6 °C 1024.3 hPa North 3.7 km/h 3.7 km/h 56% 0 mm
06:04 -0.9 °C -8.6 °C 1024.3 hPa North 3.7 km/h 3.7 km/h 56% 0 mm
06:10 -1 °C -8.7 °C 1024.3 hPa Calm     56% 0 mm
06:16 -1.2 °C -8.8 °C 1024.3 hPa Calm     56% 0 mm
06:21 -1.3 °C -8.8 °C 1023.9 hPa North 1.9 km/h 1.9 km/h 57% 0 mm
06:26 -1.4 °C -9.1 °C 1024.3 hPa North 1.9 km/h 1.9 km/h 56% 0 mm
06:32 -1.4 °C -8.8 °C 1024.3 hPa North 3.7 km/h 3.7 km/h 57% 0 mm
06:37 -1.4 °C -9.1 °C 1024.3 hPa North 3.7 km/h 3.7 km/h 56% 0 mm
06:42 -1.2 °C -9.1 °C 1023.9 hPa North 1.9 km/h 1.9 km/h 55% 0 mm
06:47 -1.2 °C -9.1 °C 1024.3 hPa North 1.9 km/h 1.9 km/h 55% 0 mm
06:52 -1.3 °C -9.2 °C 1023.9 hPa Calm     55% 0 mm
06:57 -1.3 °C -9 °C 1023.9 hPa Calm     56% 0 mm
07:02 -1.3 °C -9.2 °C 1023.9 hPa North 3.7 km/h 3.7 km/h 55% 0 mm
07:07 -1.2 °C -9.1 °C 1023.9 hPa North 3.7 km/h 3.7 km/h 55% 0 mm
07:12 -1.1 °C -9.3 °C 1023.9 hPa South 5.6 km/h 5.6 km/h 54% 0 mm
07:17 -1.1 °C -9.3 °C 1023.9 hPa South 5.6 km/h 5.6 km/h 54% 0 mm
07:22 -1.2 °C -9.1 °C 1023.9 hPa South 7.4 km/h 7.4 km/h 55% 0 mm
07:28 -1.2 °C -9.1 °C 1023.9 hPa South 5.6 km/h 5.6 km/h 55% 0 mm
07:33 -1.3 °C -9.2 °C 1023.9 hPa South 3.7 km/h 3.7 km/h 55% 0 mm
07:39 -1.2 °C -9.1 °C 1023.9 hPa South 5.6 km/h 5.6 km/h 55% 0 mm
07:44 -1.1 °C -9 °C 1023.9 hPa South 5.6 km/h 5.6 km/h 55% 0 mm
07:49 -1 °C -9.2 °C 1023.9 hPa South 5.6 km/h 5.6 km/h 54% 0 mm
07:54 -0.8 °C -9 °C 1023.6 hPa SSE 7.4 km/h 7.4 km/h 54% 0 mm
08:00 -0.6 °C -9 °C 1023.6 hPa SSW 7.4 km/h 7.4 km/h 53% 0 mm
08:05 -0.3 °C -9 °C 1023.6 hPa SSE 7.4 km/h 7.4 km/h 52% 0 mm
08:10 -0.1 °C -9 °C 1023.6 hPa South 9.3 km/h 9.3 km/h 51% 0 mm
08:15 0.2 °C -9.1 °C 1023.6 hPa South 8 km/h 8 km/h 50% 0 mm
08:20 0.3 °C -8.9 °C 1023.6 hPa SSE 5.6 km/h 5.6 km/h 50% 0 mm
08:25 0.6 °C -8.9 °C 1023.6 hPa SSE 9.7 km/h 9.7 km/h 49% 0 mm
08:31 0.8 °C -8.7 °C 1023.6 hPa South 7.4 km/h 7.4 km/h 49% 0 mm
08:36 1.1 °C -8.7 °C 1023.6 hPa South 9.3 km/h 9.3 km/h 48% 0 mm
08:41 1.3 °C -8.8 °C 1023.6 hPa South 13 km/h 13 km/h 47% 0 mm
08:46 1.6 °C -8.8 °C 1023.6 hPa South 9.3 km/h 9.3 km/h 46% 0 mm
08:51 1.8 °C -8.6 °C 1023.6 hPa SSW 8 km/h 8 km/h 46% 0 mm
08:56 2.1 °C -8.4 °C 1023.2 hPa South 7.4 km/h 7.4 km/h 46% 0 mm
09:01 2.3 °C -8.7 °C 1023.6 hPa SSE 20.4 km/h 20.4 km/h 44% 0 mm
09:06 2.4 °C -8.6 °C 1023.6 hPa SSE 9.3 km/h 9.3 km/h 44% 0 mm
09:12 2.7 °C -8.6 °C 1023.6 hPa SSW 20.4 km/h 20.4 km/h 43% 0 mm
09:17 3 °C -8.4 °C 1023.6 hPa SSW 9.3 km/h 9.3 km/h 43% 0 mm
09:22 3.2 °C -8.5 °C 1023.6 hPa WSW 18.5 km/h 18.5 km/h 42% 0 mm
09:27 3.4 °C -8.6 °C 1023.6 hPa SSW 14.8 km/h 14.8 km/h 41% 0 mm
09:32 3.7 °C -8.3 °C 1023.6 hPa South 16.7 km/h 16.7 km/h 41% 0 mm
09:37 4 °C -8.1 °C 1023.6 hPa South 18.5 km/h 18.5 km/h 41% 0 mm
09:42 4.2 °C -8.3 °C 1023.6 hPa SSW 14.8 km/h 14.8 km/h 40% 0 mm
09:48 4.4 °C -7.7 °C 1023.6 hPa SSW 6.4 km/h 6.4 km/h 41% 0 mm
09:53 4.6 °C -7.9 °C 1023.6 hPa SSW 11.1 km/h 11.1 km/h 40% 0 mm
09:58 4.9 °C -7.9 °C 1023.6 hPa South 5.6 km/h 5.6 km/h 39% 0 mm
10:03 4.9 °C -7.9 °C 1023.6 hPa SW 11.3 km/h 11.3 km/h 39% 0 mm
10:08 5.1 °C -7.8 °C 1023.6 hPa SSW 13 km/h 13 km/h 39% 0 mm
10:13 5.2 °C -7.6 °C 1023.6 hPa South 16.7 km/h 16.7 km/h 39% 0 mm
10:18 5.4 °C -7.5 °C 1023.6 hPa SSW 13 km/h 13 km/h 39% 0 mm
10:23 5.7 °C -7.2 °C 1023.2 hPa SW 14.8 km/h 14.8 km/h 39% 0 mm
10:29 5.8 °C -7.1 °C 1023.2 hPa SW 9.3 km/h 9.3 km/h 39% 0 mm
10:34 6 °C -6.9 °C 1023.2 hPa SW 5.6 km/h 5.6 km/h 39% 0 mm
10:39 6.4 °C -6.6 °C 1023.2 hPa SSW 13 km/h 13 km/h 39% 0 mm
10:44 6.8 °C -6.6 °C 1023.2 hPa WSW 8 km/h 8 km/h 38% 0 mm
10:49 7.2 °C -6.9 °C 1022.9 hPa SW 13 km/h 13 km/h 36% 0 mm
10:54 7.4 °C -6.7 °C 1022.9 hPa South 11.1 km/h 11.1 km/h 36% 0 mm
10:59 7.6 °C -6.9 °C 1022.9 hPa SSW 22.2 km/h 22.2 km/h 35% 0 mm
11:04 7.8 °C -6.3 °C 1022.6 hPa SSW 16.7 km/h 16.7 km/h 36% 0 mm
11:10 8.2 °C -6.4 °C 1022.6 hPa SSW 9.3 km/h 9.3 km/h 35% 0 mm
11:15 8.7 °C -6.7 °C 1022.6 hPa SSW 16.7 km/h 16.7 km/h 33% 0 mm
11:20 8.9 °C -6.1 °C 1022.6 hPa South 6.4 km/h 6.4 km/h 34% 0 mm
11:26 9.2 °C -6.3 °C 1022.2 hPa South 18.5 km/h 18.5 km/h 33% 0 mm
11:31 9.5 °C -6.4 °C 1022.2 hPa West 9.3 km/h 9.3 km/h 32% 0 mm
11:36 9.6 °C -6.7 °C 1022.2 hPa WSW 11.1 km/h 11.1 km/h 31% 0 mm
11:41 9.8 °C -6.2 °C 1021.9 hPa SSW 11.1 km/h 11.1 km/h 32% 0 mm
11:47 9.9 °C -6.5 °C 1021.9 hPa SW 16.7 km/h 16.7 km/h 31% 0 mm
11:52 10 °C -5.9 °C 1021.9 hPa SSW 14.8 km/h 14.8 km/h 32% 0 mm
11:58 10.3 °C -6.2 °C 1021.9 hPa East 13 km/h 13 km/h 31% 0 mm
12:03 10.7 °C -5.8 °C 1021.9 hPa SSW 7.4 km/h 7.4 km/h 31% 0 mm
12:08 10.9 °C -6.1 °C 1021.9 hPa SSW 14.8 km/h 14.8 km/h 30% 0 mm
12:13 11.3 °C -6.2 °C 1021.6 hPa SSW 11.1 km/h 11.1 km/h 29% 0 mm
12:18 11.4 °C -6.4 °C 1021.6 hPa SW 14.8 km/h 14.8 km/h 28% 0 mm
12:23 11.7 °C -5.8 °C 1021.6 hPa SSW 16.1 km/h 16.1 km/h 29% 0 mm
12:28 11.7 °C -6.2 °C 1021.6 hPa WSW 13 km/h 13 km/h 28% 0 mm
12:33 11.9 °C -5.6 °C 1021.2 hPa SW 9.3 km/h 9.3 km/h 29% 0 mm
12:38 12.4 °C -6.6 °C 1021.2 hPa SSW 18.5 km/h 18.5 km/h 26% 0 mm
12:44 12.3 °C -6.2 °C 1020.9 hPa South 9.3 km/h 9.3 km/h 27% 0 mm
12:49 12.8 °C -5.7 °C 1020.9 hPa WNW 16.7 km/h 16.7 km/h 27% 0 mm
12:54 12.7 °C -6.3 °C 1020.9 hPa SW 14.5 km/h 14.5 km/h 26% 0 mm
12:59 12.9 °C -6.1 °C 1020.5 hPa West 16.7 km/h 16.7 km/h 26% 0 mm
13:04 12.9 °C -5.7 °C 1020.5 hPa WNW 7.4 km/h 7.4 km/h 27% 0 mm
13:09 13.4 °C -5.8 °C 1020.5 hPa South 13 km/h 13 km/h 26% 0 mm
13:14 13.3 °C -5.8 °C 1020.2 hPa SW 6.4 km/h 6.4 km/h 26% 0 mm
13:19 13.7 °C -6.1 °C 1020.2 hPa South 9.3 km/h 9.3 km/h 25% 0 mm
13:24 14.2 °C -6.2 °C 1019.9 hPa WSW 13 km/h 13 km/h 24% 0 mm
13:30 14.2 °C -6.2 °C 1019.9 hPa WSW 13 km/h 13 km/h 24% 0 mm
13:35 14.4 °C -5.9 °C 1019.9 hPa WSW 13 km/h 13 km/h 24% 0 mm
13:40 14.6 °C -5.8 °C 1019.5 hPa SW 16.7 km/h 16.7 km/h 24% 0 mm
13:45 14.9 °C -6.1 °C 1019.5 hPa SW 22.2 km/h 22.2 km/h 23% 0 mm
13:50 15.1 °C -6.5 °C 1019.2 hPa SW 16.7 km/h 16.7 km/h 22% 0 mm
13:55 15.2 °C -5.8 °C 1019.2 hPa SW 14.8 km/h 14.8 km/h 23% 0 mm
14:00 15.4 °C -5.7 °C 1018.8 hPa West 5.6 km/h 5.6 km/h 23% 0 mm
14:05 15.6 °C -6.7 °C 1018.8 hPa South 11.1 km/h 11.1 km/h 21% 0 mm
14:10 15.6 °C -6.1 °C 1018.5 hPa South 13 km/h 13 km/h 22% 0 mm
14:16 15.8 °C -6.6 °C 1018.5 hPa West 14.8 km/h 14.8 km/h 21% 0 mm
14:21 16 °C -6.3 °C 1018.5 hPa SW 18.5 km/h 18.5 km/h 21% 0 mm
14:26 16.2 °C -6.2 °C 1018.5 hPa SW 11.1 km/h 11.1 km/h 21% 0 mm
14:31 16.1 °C -5.7 °C 1018.2 hPa South 14.8 km/h 14.8 km/h 22% 0 mm
14:36 16.3 °C -6.1 °C 1018.2 hPa NNW 13 km/h 13 km/h 21% 0 mm
14:41 16.4 °C -5.4 °C 1018.2 hPa WSW 13 km/h 13 km/h 22% 0 mm
14:46 16.8 °C -5.7 °C 1017.8 hPa ENE 9.3 km/h 9.3 km/h 21% 0 mm
14:51 17.2 °C -4.7 °C 1017.8 hPa West 5.6 km/h 5.6 km/h 22% 0 mm
14:56 17.3 °C -5.3 °C 1017.8 hPa NW 13 km/h 13 km/h 21% 0 mm
15:01 17.3 °C -5.9 °C 1017.5 hPa SW 11.1 km/h 11.1 km/h 20% 0 mm
15:07 17.2 °C -4.7 °C 1017.5 hPa SSE 14.8 km/h 14.8 km/h 22% 0 mm
15:12 17.1 °C -5.4 °C 1017.5 hPa NW 11.1 km/h 11.1 km/h 21% 0 mm
15:17 17.1 °C -5.4 °C 1017.2 hPa WSW 18.5 km/h 18.5 km/h 21% 0 mm
15:22 17.2 °C -5.4 °C 1017.2 hPa WSW 20.4 km/h 20.4 km/h 21% 0 mm
15:27 17.1 °C -5.4 °C 1017.2 hPa South 16.7 km/h 16.7 km/h 21% 0 mm
15:32 17.2 °C -5.4 °C 1016.8 hPa SW 20.4 km/h 20.4 km/h 21% 0 mm
15:37 16.8 °C -5.7 °C 1016.8 hPa WSW 22.2 km/h 22.2 km/h 21% 0 mm
15:43 16.9 °C -5 °C 1016.5 hPa SW 9.3 km/h 9.3 km/h 22% 0 mm
15:48 17.2 °C -4.7 °C 1016.5 hPa South 13 km/h 13 km/h 22% 0 mm
15:54 17.3 °C -4.7 °C 1016.5 hPa SSW 16.7 km/h 16.7 km/h 22% 0 mm
15:59 17.3 °C -4.7 °C 1016.5 hPa SW 20.4 km/h 20.4 km/h 22% 0 mm
16:04 17.1 °C -4.8 °C 1016.1 hPa WSW 11.1 km/h 11.1 km/h 22% 0 mm
16:10 17.4 °C -4.6 °C 1016.1 hPa SW 7.4 km/h 8 km/h 22% 0 mm
16:15 17.6 °C -4.4 °C 1016.1 hPa East 9.3 km/h 9.3 km/h 22% 0 mm
16:20 17.6 °C -5.1 °C 1015.8 hPa SSW 18.5 km/h 18.5 km/h 21% 0 mm
16:26 17.5 °C -4.5 °C 1015.8 hPa SSW 6.4 km/h 6.4 km/h 22% 0 mm
16:31 17.6 °C -5.1 °C 1015.8 hPa NW 5.6 km/h 5.6 km/h 21% 0 mm
16:36 17.6 °C -5.1 °C 1015.8 hPa South 16.7 km/h 16.7 km/h 21% 0 mm
16:41 17.6 °C -5 °C 1015.8 hPa East 13 km/h 13 km/h 21% 0 mm
16:46 17.5 °C -5.1 °C 1015.5 hPa SSW 16.7 km/h 16.7 km/h 21% 0 mm
16:51 17.7 °C -4.9 °C 1015.5 hPa SSE 14.8 km/h 14.8 km/h 21% 0 mm
16:57 17.8 °C -4.2 °C 1015.5 hPa WSW 7.4 km/h 7.4 km/h 22% 0 mm
17:02 17.8 °C -5.5 °C 1015.1 hPa SSW 14.8 km/h 14.8 km/h 20% 0 mm
17:07 17.7 °C -4.9 °C 1015.1 hPa South 18.5 km/h 18.5 km/h 21% 0 mm
17:12 17.7 °C -5.6 °C 1015.1 hPa SSW 18.5 km/h 18.5 km/h 20% 0 mm
17:17 17.6 °C -5.1 °C 1015.1 hPa SSW 8 km/h 8 km/h 21% 0 mm
17:22 17.8 °C -5.4 °C 1014.8 hPa SW 13 km/h 13 km/h 20% 0 mm
17:27 17.9 °C -4.7 °C 1014.8 hPa South 14.5 km/h 14.5 km/h 21% 0 mm
17:32 18 °C -5.3 °C 1014.8 hPa NW 18.5 km/h 18.5 km/h 20% 0 mm
17:37 18 °C -5.3 °C 1014.8 hPa WSW 11.3 km/h 11.3 km/h 20% 0 mm
17:43 17.9 °C -5.4 °C 1014.4 hPa SSW 16.7 km/h 16.7 km/h 20% 0 mm
17:48 17.9 °C -5.4 °C 1014.4 hPa SSW 9.3 km/h 9.3 km/h 20% 0 mm
17:53 17.9 °C -5.4 °C 1014.4 hPa SW 7.4 km/h 7.4 km/h 20% 0 mm
17:58 18.1 °C -4.6 °C 1014.4 hPa SW 5.6 km/h 5.6 km/h 21% 0 mm
18:03 18.1 °C -5.3 °C 1014.4 hPa SSE 16.7 km/h 16.7 km/h 20% 0 mm
18:08 17.8 °C -5.4 °C 1014.4 hPa WSW 14.8 km/h 14.8 km/h 20% 0 mm
18:13 17.7 °C -4.9 °C 1014.4 hPa SSW 13 km/h 13 km/h 21% 0 mm
18:18 17.6 °C -5 °C 1014.4 hPa NNW 13 km/h 13 km/h 21% 0 mm
18:23 17.5 °C -5.1 °C 1014.4 hPa South 14.8 km/h 14.8 km/h 21% 0 mm
18:28 17.4 °C -5.2 °C 1014.1 hPa SSW 11.1 km/h 11.1 km/h 21% 0 mm
18:34 17.3 °C -5.3 °C 1014.1 hPa SW 13 km/h 13 km/h 21% 0 mm
18:39 17.2 °C -5.4 °C 1014.1 hPa North 7.4 km/h 7.4 km/h 21% 0 mm
18:44 17.1 °C -4.8 °C 1014.1 hPa WSW 8 km/h 8 km/h 22% 0 mm
18:50 16.8 °C -5.1 °C 1014.1 hPa SSW 14.8 km/h 14.8 km/h 22% 0 mm
18:55 16.7 °C -5.2 °C 1014.1 hPa SW 9.3 km/h 9.5 km/h 22% 0 mm
19:00 16.6 °C -5.3 °C 1014.1 hPa SSW 13 km/h 13 km/h 22% 0 mm
19:05 16.4 °C -5.4 °C 1013.8 hPa SSW 5.6 km/h 5.6 km/h 22% 0 mm
19:10 16.2 °C -4.9 °C 1013.8 hPa WSW 7.4 km/h 7.4 km/h 23% 0 mm
19:15 16.1 °C -5.1 °C 1013.8 hPa South 5.6 km/h 5.6 km/h 23% 0 mm
19:20 15.9 °C -5.2 °C 1013.8 hPa SSW 9.3 km/h 9.3 km/h 23% 0 mm
19:25 15.8 °C -5.3 °C 1013.8 hPa SSW 7.4 km/h 7.4 km/h 23% 0 mm
19:31 15.7 °C -5.4 °C 1013.8 hPa South 11.1 km/h 11.1 km/h 23% 0 mm
19:36 15.5 °C -5 °C 1013.8 hPa SW 9.3 km/h 9.3 km/h 24% 0 mm
19:41 15.3 °C -5.2 °C 1013.8 hPa SSW 7.4 km/h 7.4 km/h 24% 0 mm
19:47 15.2 °C -5.3 °C 1013.4 hPa South 13 km/h 13 km/h 24% 0 mm
19:52 15 °C -4.9 °C 1013.4 hPa South 13 km/h 13 km/h 25% 0 mm
19:57 14.9 °C -5 °C 1013.4 hPa SW 9.3 km/h 9.3 km/h 25% 0 mm
20:02 14.8 °C -5.1 °C 1013.4 hPa SSW 9.3 km/h 9.3 km/h 25% 0 mm
20:07 14.7 °C -5.2 °C 1013.4 hPa South 14.8 km/h 14.8 km/h 25% 0 mm
20:12 14.6 °C -4.8 °C 1013.4 hPa SSW 7.4 km/h 7.4 km/h 26% 0 mm
20:17 14.4 °C -4.9 °C 1013.4 hPa SW 11.1 km/h 11.1 km/h 26% 0 mm
20:22 14.3 °C -5 °C 1013.4 hPa SW 14.8 km/h 14.8 km/h 26% 0 mm
20:27 14.2 °C -5.1 °C 1013.4 hPa South 16.7 km/h 16.7 km/h 26% 0 mm
20:33 14.1 °C -5.2 °C 1013.4 hPa South 11.1 km/h 11.1 km/h 26% 0 mm
20:38 13.9 °C -5.3 °C 1013.4 hPa South 9.3 km/h 9.3 km/h 26% 0 mm
20:44 13.8 °C -4.9 °C 1013.4 hPa SSW 13 km/h 13 km/h 27% 0 mm
20:49 13.8 °C -4.9 °C 1013.1 hPa SW 11.1 km/h 11.1 km/h 27% 0 mm
20:54 13.7 °C -5 °C 1013.1 hPa South 25.9 km/h 25.9 km/h 27% 0 mm
20:59 13.7 °C -5 °C 1013.1 hPa SSW 11.1 km/h 11.1 km/h 27% 0 mm
21:04 13.6 °C -5.1 °C 1013.1 hPa SSE 9.3 km/h 11.4 km/h 27% 0 mm
21:09 13.4 °C -4.8 °C 1013.1 hPa South 18.5 km/h 18.5 km/h 28% 0 mm
21:14 13.3 °C -4.9 °C 1013.1 hPa SW 5.6 km/h 5.6 km/h 28% 0 mm
21:19 13.2 °C -4.9 °C 1013.1 hPa SSW 11.1 km/h 11.1 km/h 28% 0 mm
21:25 13.1 °C -5 °C 1013.1 hPa South 14.8 km/h 14.8 km/h 28% 0 mm
21:30 13.1 °C -5 °C 1013.1 hPa SSW 16.1 km/h 16.1 km/h 28% 0 mm
21:35 13.1 °C -5.1 °C 1013.1 hPa South 14.8 km/h 14.8 km/h 28% 0 mm
21:41 13.1 °C -5.1 °C 1013.1 hPa SSE 11.1 km/h 11.1 km/h 28% 0 mm
21:46 12.9 °C -5.2 °C 1013.1 hPa SSW 20.4 km/h 20.4 km/h 28% 0 mm
21:51 12.9 °C -5.2 °C 1013.1 hPa SW 18.5 km/h 18.5 km/h 28% 0 mm
21:56 12.8 °C -4.8 °C 1013.1 hPa South 13 km/h 13 km/h 29% 0 mm
22:01 12.7 °C -4.9 °C 1013.1 hPa South 9.3 km/h 9.3 km/h 29% 0 mm
22:06 12.5 °C -5.1 °C 1013.1 hPa South 11.1 km/h 11.1 km/h 29% 0 mm
22:12 12.4 °C -5.1 °C 1013.1 hPa South 14.5 km/h 14.5 km/h 29% 0 mm
22:14 12.4 °C -5.2 °C 1013.1 hPa SSW 9.3 km/h 9.3 km/h 29% 0 mm
22:19 12.4 °C -4.7 °C 1013.1 hPa South 16.7 km/h 16.7 km/h 30% 0 mm
22:24 12.3 °C -4.8 °C 1013.1 hPa South 14.8 km/h 14.8 km/h 30% 0 mm
22:29 12.3 °C -4.8 °C 1013.1 hPa WSW 13 km/h 13 km/h 30% 0 mm
22:34 12.2 °C -4.9 °C 1012.8 hPa SSW 11.1 km/h 11.1 km/h 30% 0 mm
22:39 12.1 °C -4.9 °C 1012.8 hPa WSW 13 km/h 13 km/h 30% 0 mm
22:44 12 °C -4.6 °C 1012.8 hPa SW 9.3 km/h 9.3 km/h 31% 0 mm
22:50 11.9 °C -4.7 °C 1012.8 hPa SSE 18.5 km/h 18.5 km/h 31% 0 mm
22:55 11.9 °C -4.7 °C 1012.8 hPa South 16.1 km/h 16.1 km/h 31% 0 mm
23:00 11.8 °C -4.8 °C 1012.8 hPa SSW 22.2 km/h 22.2 km/h 31% 0 mm
23:05 11.8 °C -4.8 °C 1012.4 hPa SSW 20.4 km/h 20.4 km/h 31% 0 mm
23:10 11.8 °C -4.8 °C 1012.4 hPa West 11.3 km/h 11.3 km/h 31% 0 mm
23:16 11.7 °C -4.9 °C 1012.8 hPa SSW 18.5 km/h 18.5 km/h 31% 0 mm
23:21 11.7 °C -4.9 °C 1012.4 hPa SSW 18.5 km/h 18.5 km/h 31% 0 mm
23:26 11.6 °C -4.6 °C 1012.4 hPa SSW 13 km/h 13 km/h 32% 0 mm
23:31 11.6 °C -4.6 °C 1012.4 hPa SSW 11.1 km/h 11.1 km/h 32% 0 mm
23:36 11.6 °C -4.6 °C 1012.4 hPa SSW 11.1 km/h 11.1 km/h 32% 0 mm
23:42 11.4 °C -4.7 °C 1012.4 hPa SSW 11.1 km/h 11.1 km/h 32% 0 mm
23:47 11.4 °C -4.7 °C 1012.4 hPa SSW 18.5 km/h 18.5 km/h 32% 0 mm
23:52 11.3 °C -4.8 °C 1012.4 hPa South 11.1 km/h 11.1 km/h 32% 0 mm
23:57 11.2 °C -4.9 °C 1012.4 hPa South 13 km/h 13 km/h 32% 0 mm
Live Lenexa Weather
Compliments of Weather Underground - 1.75 mb